Time;durP1;ratioP1;P1;durP2;ratioP2;P2;SDS_P1;SDS_P2;PMS_P1;PMS_P2;Temp;Humidity;BMP_temperature;BMP_pressure;BME280_temperature;BME280_humidity;BME280_pressure;Samples;Min_cycle;Max_cycle;Signal;HPM_P1;HPM_P2
2023/05/17 00:00:17;;;;;;;17.90;13.80;;;;;;;12.46;79.88;96604.10;108830;1250;100037;-77
2023/05/17 00:03:05;;;;;;;15.10;13.00;;;;;;;12.43;80.15;96601.79;108896;1250;95521;-76
2023/05/17 00:05:33;;;;;;;15.10;13.50;;;;;;;12.38;80.24;96603.84;108902;1250;96027;-76
2023/05/17 00:08:01;;;;;;;17.50;13.30;;;;;;;12.32;80.18;96611.14;108930;1249;103996;-78
2023/05/17 00:10:30;;;;;;;14.20;12.70;;;;;;;12.31;80.24;96612.75;108534;1251;100157;-77
2023/05/17 00:12:58;;;;;;;15.40;13.30;;;;;;;12.32;80.55;96612.12;108835;1250;99697;-77
2023/05/17 00:15:26;;;;;;;16.40;14.00;;;;;;;12.33;80.60;96607.35;108862;1250;95634;-76
2023/05/17 00:17:54;;;;;;;15.60;13.60;;;;;;;12.31;80.70;96598.24;108915;1250;95703;-78
2023/05/17 00:20:22;;;;;;;17.50;14.50;;;;;;;12.26;80.81;96598.90;108897;1250;102608;-79
2023/05/17 00:22:50;;;;;;;18.10;15.00;;;;;;;12.24;80.99;96608.73;108843;1250;101309;-80
2023/05/17 00:25:18;;;;;;;16.90;14.90;;;;;;;12.26;81.11;96610.71;108794;1251;97694;-79
2023/05/17 00:27:46;;;;;;;19.10;15.30;;;;;;;12.28;81.17;96617.13;108770;1252;95933;-76
2023/05/17 00:30:14;;;;;;;19.10;15.90;;;;;;;12.32;80.99;96614.49;108885;1254;95987;-77
2023/05/17 00:32:44;;;;;;;19.10;14.80;;;;;;;12.35;80.98;96611.02;108862;1250;103696;-77
2023/05/17 00:35:12;;;;;;;17.50;15.10;;;;;;;12.36;81.14;96612.25;108852;1250;101064;-77
2023/05/17 00:37:42;;;;;;;19.80;15.50;;;;;;;12.38;81.07;96615.96;108873;1250;100070;-77
2023/05/17 00:40:11;;;;;;;19.90;15.80;;;;;;;12.40;81.15;96614.42;108587;1250;95994;-79
2023/05/17 00:42:39;;;;;;;18.90;15.00;;;;;;;12.41;81.25;96611.91;108582;1250;96055;-77
2023/05/17 00:45:07;;;;;;;19.00;15.30;;;;;;;12.36;81.40;96613.21;108898;1250;103216;-77
2023/05/17 00:47:35;;;;;;;19.00;15.10;;;;;;;12.33;81.45;96618.34;108846;1250;101196;-79
2023/05/17 00:50:05;;;;;;;18.70;15.70;;;;;;;12.32;81.65;96624.55;108642;1250;100031;-77
2023/05/17 00:52:33;;;;;;;19.30;15.60;;;;;;;12.30;81.78;96630.05;108828;1250;95606;-77
2023/05/17 00:55:01;;;;;;;19.30;16.40;;;;;;;12.33;81.65;96626.35;108869;1250;95945;-77
2023/05/17 00:57:30;;;;;;;18.30;15.50;;;;;;;12.37;81.73;96618.05;108881;1250;103571;-77
2023/05/17 00:59:59;;;;;;;19.10;16.50;;;;;;;12.40;81.69;96617.26;108920;1250;101429;-77
2023/05/17 01:02:27;;;;;;;19.80;15.70;;;;;;;12.41;81.73;96617.23;108531;1250;98760;-76
2023/05/17 01:04:56;;;;;;;16.40;14.30;;;;;;;12.44;81.70;96620.95;108903;1250;95640;-78
2023/05/17 01:07:24;;;;;;;17.40;14.10;;;;;;;12.46;81.67;96630.89;108912;1250;96061;-77
2023/05/17 01:09:52;;;;;;;15.30;13.70;;;;;;;12.48;81.75;96639.96;108807;1250;104636;-77
2023/05/17 01:12:42;;;;;;;18.90;14.20;;;;;;;12.50;81.67;96638.34;108905;1250;101604;-76
2023/05/17 01:15:22;;;;;;;16.90;13.20;;;;;;;12.52;81.68;96632.91;108884;1250;99660;-79
2023/05/17 01:17:56;;;;;;;15.40;13.60;;;;;;;12.55;81.71;96627.66;108883;1250;95593;-77
2023/05/17 01:20:31;;;;;;;14.30;12.80;;;;;;;12.57;81.76;96623.36;108636;1250;96147;-78
2023/05/17 01:23:23;;;;;;;12.20;10.90;;;;;;;12.54;81.69;96622.67;108928;1250;102791;-78
2023/05/17 01:26:05;;;;;;;11.60;10.40;;;;;;;12.47;81.82;96628.99;108903;1250;101464;-77
2023/05/17 01:28:34;;;;;;;11.80;10.50;;;;;;;12.39;81.96;96636.12;108881;1250;98261;-77
2023/05/17 01:31:03;;;;;;;13.80;10.90;;;;;;;12.36;82.18;96654.71;108920;1250;95861;-76
2023/05/17 01:33:32;;;;;;;13.00;10.20;;;;;;;12.35;82.39;96670.63;108640;1251;97143;-77
2023/05/17 01:36:00;;;;;;;12.10;10.90;;;;;;;12.37;82.37;96675.22;108524;1250;102808;-77
2023/05/17 01:38:28;;;;;;;11.40;10.20;;;;;;;12.39;82.46;96676.77;108519;1250;100938;-79
2023/05/17 01:41:16;;;;;;;11.80;9.90;;;;;;;12.39;82.40;96676.30;108874;1250;99523;-78
2023/05/17 01:43:51;;;;;;;11.40;10.20;;;;;;;12.42;82.62;96672.35;108866;1250;95614;-77
2023/05/17 01:46:32;;;;;;;10.00;9.00;;;;;;;12.46;82.42;96662.50;108915;1250;95953;-76
2023/05/17 01:49:21;;;;;;;11.30;10.20;;;;;;;12.50;82.51;96661.88;108839;1252;103374;-77
2023/05/17 01:52:02;;;;;;;9.90;8.90;;;;;;;12.53;82.32;96656.02;108842;1251;101518;-76
2023/05/17 01:54:46;;;;;;;9.60;8.70;;;;;;;12.56;82.27;96651.71;108809;1252;98668;-78
2023/05/17 01:57:15;;;;;;;7.90;7.10;;;;;;;12.58;82.22;96646.48;108739;1251;95646;-76
2023/05/17 01:59:45;;;;;;;7.40;6.40;;;;;;;12.53;82.30;96643.05;108561;1252;96052;-77
2023/05/17 02:02:13;;;;;;;7.60;6.30;;;;;;;12.49;82.42;96644.81;108772;1253;103595;-77
2023/05/17 02:04:41;;;;;;;6.30;5.70;;;;;;;12.49;82.58;96649.90;108840;1251;101443;-75
2023/05/17 02:07:09;;;;;;;8.80;5.50;;;;;;;12.51;82.61;96651.89;108842;1251;99915;-77
2023/05/17 02:09:38;;;;;;;6.30;4.80;;;;;;;12.53;82.47;96654.31;108614;1252;95590;-77
2023/05/17 02:12:06;;;;;;;5.30;4.80;;;;;;;12.55;82.37;96657.11;108807;1251;96125;-76
2023/05/17 02:14:34;;;;;;;6.20;5.60;;;;;;;12.56;82.37;96659.99;108606;1252;103683;-76
2023/05/17 02:17:04;;;;;;;6.30;5.80;;;;;;;12.56;82.45;96657.77;108839;1252;101080;-77
2023/05/17 02:19:32;;;;;;;5.70;5.20;;;;;;;12.56;82.40;96654.02;108739;1252;99834;-76
2023/05/17 02:22:00;;;;;;;5.90;5.30;;;;;;;12.53;82.22;96650.52;108801;1253;95587;-76
2023/05/17 02:24:28;;;;;;;6.10;5.50;;;;;;;12.51;82.37;96645.82;108837;1255;96512;-74
2023/05/17 02:26:56;;;;;;;5.40;4.90;;;;;;;12.51;82.44;96647.82;108763;1252;102697;-76
2023/05/17 02:29:25;;;;;;;5.10;4.70;;;;;;;12.50;82.45;96645.71;108803;1252;101548;-76
2023/05/17 02:31:53;;;;;;;5.00;4.40;;;;;;;12.50;82.35;96639.75;108748;1252;99971;-76
2023/05/17 02:34:21;;;;;;;5.20;4.70;;;;;;;12.48;82.28;96635.20;108798;1251;95948;-77
2023/05/17 02:36:49;;;;;;;6.40;3.80;;;;;;;12.46;82.38;96629.16;108855;1252;96100;-78
2023/05/17 02:39:17;;;;;;;4.50;4.10;;;;;;;12.46;82.35;96625.76;108775;1252;103491;-76
2023/05/17 02:41:45;;;;;;;4.10;3.80;;;;;;;12.46;82.43;96621.68;108771;1252;109906;-77
2023/05/17 02:44:13;;;;;;;4.40;4.00;;;;;;;12.44;82.38;96629.71;108477;1252;100183;-77
2023/05/17 02:46:41;;;;;;;3.00;2.80;;;;;;;12.44;82.50;96637.23;108815;1250;95526;-78
2023/05/17 02:49:09;;;;;;;6.60;2.70;;;;;;;12.43;82.48;96642.16;108532;1250;96053;-76
2023/05/17 02:51:37;;;;;;;3.00;2.80;;;;;;;12.43;82.40;96641.79;108917;1251;103715;-75
2023/05/17 02:54:05;;;;;;;3.20;2.90;;;;;;;12.39;82.39;96644.63;108922;1250;101477;-76
2023/05/17 02:56:33;;;;;;;3.80;3.00;;;;;;;12.32;82.54;96648.77;108893;1250;99911;-76
2023/05/17 02:59:02;;;;;;;3.30;2.40;;;;;;;12.29;82.55;96655.41;108881;1250;95813;-78
2023/05/17 03:01:30;;;;;;;2.60;2.40;;;;;;;12.28;82.66;96656.15;108895;1250;96296;-79
2023/05/17 03:03:58;;;;;;;2.20;2.10;;;;;;;12.29;82.64;96652.59;108900;1250;103256;-76
2023/05/17 03:06:26;;;;;;;2.60;2.20;;;;;;;12.29;82.60;96648.01;108890;1250;101452;-77
2023/05/17 03:08:54;;;;;;;2.30;2.20;;;;;;;12.28;82.63;96652.10;108921;1250;100330;-76
2023/05/17 03:11:22;;;;;;;2.40;2.20;;;;;;;12.27;82.66;96651.79;108901;1250;95853;-79
2023/05/17 03:13:50;;;;;;;3.50;2.50;;;;;;;12.25;82.60;96655.77;108918;1250;95945;-76
2023/05/17 03:16:19;;;;;;;2.30;2.20;;;;;;;12.21;82.76;96660.11;108940;1250;103508;-76
2023/05/17 03:18:47;;;;;;;2.10;2.00;;;;;;;12.20;82.84;96665.55;108916;1250;101558;-76
2023/05/17 03:21:15;;;;;;;2.40;2.30;;;;;;;12.19;82.83;96666.62;108890;1250;99111;-77
2023/05/17 03:23:43;;;;;;;2.70;2.50;;;;;;;12.19;82.84;96669.45;108889;1250;95499;-76
2023/05/17 03:26:11;;;;;;;2.50;2.30;;;;;;;12.20;82.82;96677.52;108898;1250;95987;-76
2023/05/17 03:28:40;;;;;;;3.60;2.30;;;;;;;12.22;82.91;96682.76;108921;1250;103701;-76
2023/05/17 03:31:08;;;;;;;2.80;2.50;;;;;;;12.23;82.93;96686.41;108667;1250;101059;-77
2023/05/17 03:33:36;;;;;;;2.60;2.10;;;;;;;12.24;83.01;96691.63;108892;1250;99968;-76
2023/05/17 03:36:04;;;;;;;2.60;2.40;;;;;;;12.26;83.03;96697.94;108581;1250;95904;-75
2023/05/17 03:38:32;;;;;;;2.20;2.10;;;;;;;12.28;82.97;96693.48;108913;1250;96019;-77
2023/05/17 03:41:01;;;;;;;2.70;2.50;;;;;;;12.28;82.92;96687.11;108643;1250;102775;-75
2023/05/17 03:43:29;;;;;;;2.50;2.30;;;;;;;12.28;82.94;96688.41;108905;1250;101487;-76
2023/05/17 03:45:57;;;;;;;2.00;1.90;;;;;;;12.28;82.75;96693.54;108869;1250;100019;-76
2023/05/17 03:48:25;;;;;;;1.80;1.70;;;;;;;12.28;82.80;96699.56;108519;1255;95670;-75
2023/05/17 03:50:53;;;;;;;1.40;1.30;;;;;;;12.29;82.86;96695.30;108970;1250;96025;-76
2023/05/17 03:53:22;;;;;;;1.80;1.40;;;;;;;12.29;82.77;96698.12;108874;1251;103468;-76
2023/05/17 03:55:50;;;;;;;2.30;1.90;;;;;;;12.30;82.81;96702.74;108905;1250;101016;-77
2023/05/17 03:58:18;;;;;;;1.60;1.50;;;;;;;12.32;82.83;96707.14;108876;1250;100200;-75
2023/05/17 04:00:46;;;;;;;2.40;1.60;;;;;;;12.33;82.76;96709.65;108865;1250;95642;-76
2023/05/17 04:03:14;;;;;;;2.90;1.80;;;;;;;12.32;82.83;96715.22;108910;1250;96015;-76
2023/05/17 04:05:44;;;;;;;3.30;2.00;;;;;;;12.33;82.89;96726.48;108949;1254;103471;-76
2023/05/17 04:08:12;;;;;;;2.00;1.90;;;;;;;12.34;82.76;96732.61;108386;1250;101459;-75
2023/05/17 04:10:41;;;;;;;2.10;2.00;;;;;;;12.33;82.81;96732.66;108915;1250;99623;-75
2023/05/17 04:13:09;;;;;;;2.80;1.80;;;;;;;12.34;82.90;96723.70;108897;1250;95522;-79
2023/05/17 04:15:37;;;;;;;5.20;1.60;;;;;;;12.36;82.79;96718.21;108687;1250;96071;-77
2023/05/17 04:18:05;;;;;;;1.90;1.80;;;;;;;12.38;82.71;96731.25;108572;1250;103701;-75
2023/05/17 04:20:34;;;;;;;2.10;1.80;;;;;;;12.38;82.66;96741.27;108894;1250;101181;-78
2023/05/17 04:23:02;;;;;;;2.10;1.90;;;;;;;12.40;82.52;96745.28;108917;1250;99874;-75
2023/05/17 04:25:30;;;;;;;1.80;1.70;;;;;;;12.42;82.69;96748.13;108915;1251;95772;-75
2023/05/17 04:27:58;;;;;;;1.50;1.40;;;;;;;12.43;82.62;96752.05;108914;1250;96152;-75
2023/05/17 04:30:26;;;;;;;2.80;1.90;;;;;;;12.44;82.53;96749.85;108797;1250;103533;-76
2023/05/17 04:32:54;;;;;;;2.00;1.90;;;;;;;12.42;82.50;96755.38;108937;1250;101016;-74
2023/05/17 04:35:22;;;;;;;2.00;1.90;;;;;;;12.35;82.55;96759.77;108903;1250;100336;-76
2023/05/17 04:37:51;;;;;;;1.80;1.70;;;;;;;12.34;82.65;96760.34;108890;1250;95695;-76
2023/05/17 04:40:20;;;;;;;1.80;1.70;;;;;;;12.35;82.78;96755.45;108664;1250;96043;-76
2023/05/17 04:42:48;;;;;;;1.70;1.60;;;;;;;12.36;82.69;96753.68;108543;1250;103266;-76
2023/05/17 04:45:16;;;;;;;1.60;1.50;;;;;;;12.30;82.49;96748.52;108894;1250;101472;-75
2023/05/17 04:47:45;;;;;;;1.70;1.30;;;;;;;12.28;82.60;96751.68;108873;1250;99850;-76
2023/05/17 04:50:13;;;;;;;1.60;1.50;;;;;;;12.28;82.68;96753.23;108890;1254;95869;-75
2023/05/17 04:52:41;;;;;;;2.30;1.60;;;;;;;12.28;82.60;96760.60;108924;1250;96054;-77
2023/05/17 04:55:10;;;;;;;2.20;1.70;;;;;;;12.28;82.63;96763.47;108916;1250;103435;-77
2023/05/17 04:57:38;;;;;;;2.00;1.40;;;;;;;12.28;82.56;96768.38;108572;1250;101164;-75
2023/05/17 05:00:08;;;;;;;1.50;1.40;;;;;;;12.26;82.39;96770.02;108930;1250;99955;-76
2023/05/17 05:02:37;;;;;;;2.50;1.60;;;;;;;12.23;82.42;96769.08;108869;1250;95561;-75
2023/05/17 05:05:06;;;;;;;1.80;1.60;;;;;;;12.19;82.39;96770.80;108900;1250;96040;-75
2023/05/17 05:07:34;;;;;;;2.60;1.80;;;;;;;12.14;82.44;96773.00;108549;1250;103421;-79
2023/05/17 05:10:02;;;;;;;2.70;1.60;;;;;;;12.15;82.49;96778.87;108913;1250;101335;-77
2023/05/17 05:12:31;;;;;;;1.50;1.30;;;;;;;12.17;82.57;96784.23;108522;1250;99607;-76
2023/05/17 05:14:59;;;;;;;1.90;1.30;;;;;;;12.20;82.50;96783.91;108627;1251;95687;-76
2023/05/17 05:17:27;;;;;;;1.90;1.60;;;;;;;12.21;82.34;96785.73;108894;1250;96136;-77
2023/05/17 05:19:55;;;;;;;1.50;1.30;;;;;;;12.22;82.46;96787.20;108970;1250;102643;-76
2023/05/17 05:22:23;;;;;;;1.60;1.20;;;;;;;12.23;82.26;96791.06;108828;1250;108640;-76
2023/05/17 05:24:52;;;;;;;1.80;1.60;;;;;;;12.23;82.21;96798.42;108875;1250;99864;-78
2023/05/17 05:27:20;;;;;;;2.40;2.10;;;;;;;12.23;82.33;96801.34;108904;1250;95573;-77
2023/05/17 05:29:48;;;;;;;3.60;2.00;;;;;;;12.24;82.27;96801.30;108903;1250;95978;-81
2023/05/17 05:32:16;;;;;;;4.60;2.10;;;;;;;12.23;82.19;96802.48;108877;1250;103485;-78
2023/05/17 05:34:44;;;;;;;2.20;1.70;;;;;;;12.23;82.22;96801.02;108914;1250;100103;-76
2023/05/17 05:37:12;;;;;;;2.20;2.00;;;;;;;12.22;82.20;96802.77;108886;1250;99958;-76
2023/05/17 05:39:40;;;;;;;2.20;2.00;;;;;;;12.20;82.15;96803.23;108898;1250;95567;-77
2023/05/17 05:42:09;;;;;;;1.80;1.70;;;;;;;12.19;82.05;96801.70;108870;1250;96523;-77
2023/05/17 05:44:37;;;;;;;2.40;2.00;;;;;;;12.19;82.11;96807.59;108883;1254;103721;-77
2023/05/17 05:47:05;;;;;;;3.00;1.90;;;;;;;12.19;82.21;96813.13;108945;1250;100185;-76
2023/05/17 05:49:33;;;;;;;2.20;2.00;;;;;;;12.19;82.16;96818.69;108845;1250;99626;-76
2023/05/17 05:52:02;;;;;;;2.20;1.80;;;;;;;12.19;82.21;96826.59;108858;1250;95920;-76
2023/05/17 05:54:30;;;;;;;2.60;2.10;;;;;;;12.19;82.11;96834.82;108395;1250;96055;-76
2023/05/17 05:56:59;;;;;;;2.20;2.00;;;;;;;12.19;82.27;96837.48;108838;1250;103515;-76
2023/05/17 05:59:28;;;;;;;3.30;2.00;;;;;;;12.19;82.15;96838.55;108937;1250;101319;-76
2023/05/17 06:01:56;;;;;;;2.50;2.30;;;;;;;12.19;82.20;96843.95;108544;1250;99024;-78
2023/05/17 06:04:24;;;;;;;2.40;2.20;;;;;;;12.20;82.29;96850.08;108865;1254;95775;-76
2023/05/17 06:06:54;;;;;;;2.10;1.90;;;;;;;12.19;82.12;96853.47;108903;1251;96018;-76
2023/05/17 06:09:23;;;;;;;2.70;2.40;;;;;;;12.19;82.18;96852.40;108626;1250;103531;-78
2023/05/17 06:11:54;;;;;;;3.80;2.40;;;;;;;12.17;82.13;96861.24;108877;1250;101255;-77
2023/05/17 06:14:22;;;;;;;2.80;2.20;;;;;;;12.16;82.09;96862.14;108846;1251;99941;-78
2023/05/17 06:16:50;;;;;;;2.70;2.50;;;;;;;12.17;82.32;96859.83;108882;1251;95586;-78
2023/05/17 06:19:19;;;;;;;3.20;2.80;;;;;;;12.18;82.35;96861.90;108915;1251;96013;-76
2023/05/17 06:21:47;;;;;;;2.50;2.30;;;;;;;12.18;82.25;96859.64;108908;1254;103673;-78
2023/05/17 06:24:16;;;;;;;2.80;2.60;;;;;;;12.18;82.15;96863.65;108365;1250;100588;-78
2023/05/17 06:26:45;;;;;;;2.30;2.20;;;;;;;12.17;82.31;96867.28;108813;1251;100037;-78
2023/05/17 06:29:14;;;;;;;2.60;2.20;;;;;;;12.17;82.26;96867.95;108871;1251;95663;-75
2023/05/17 06:31:42;;;;;;;2.10;1.90;;;;;;;12.17;82.15;96866.36;108857;1251;96055;-75
2023/05/17 06:34:10;;;;;;;2.30;1.90;;;;;;;12.18;82.27;96867.23;108890;1250;103487;-76
2023/05/17 06:36:38;;;;;;;1.80;1.60;;;;;;;12.20;82.26;96865.72;108880;1250;101288;-77
2023/05/17 06:39:07;;;;;;;1.40;1.30;;;;;;;12.20;82.26;96872.33;108555;1250;99841;-79
2023/05/17 06:41:35;;;;;;;1.50;1.40;;;;;;;12.19;82.14;96877.24;108775;1251;95828;-75
2023/05/17 06:44:03;;;;;;;1.70;1.60;;;;;;;12.18;82.18;96879.42;108908;1251;95943;-76
2023/05/17 06:46:32;;;;;;;1.40;1.30;;;;;;;12.16;82.09;96879.33;108528;1251;103567;-79
2023/05/17 06:49:00;;;;;;;2.00;1.30;;;;;;;12.15;82.15;96877.19;108903;1250;101094;-76
2023/05/17 06:51:28;;;;;;;1.20;1.10;;;;;;;12.13;82.12;96874.70;108903;1250;99960;-76
2023/05/17 06:53:57;;;;;;;3.00;1.30;;;;;;;12.11;82.22;96873.91;108918;1251;95794;-77
2023/05/17 06:56:25;;;;;;;3.00;1.50;;;;;;;12.10;82.27;96879.87;108820;1251;96470;-76
2023/05/17 06:58:53;;;;;;;1.00;1.00;;;;;;;12.12;82.47;96881.23;108654;1251;102619;-76
2023/05/17 07:01:21;;;;;;;0.90;0.90;;;;;;;12.12;82.45;96883.98;108561;1251;101032;-76
2023/05/17 07:03:49;;;;;;;1.00;1.00;;;;;;;12.11;82.35;96888.65;108883;1251;99985;-75
2023/05/17 07:06:17;;;;;;;2.20;1.20;;;;;;;12.09;82.32;96892.58;108836;1251;95603;-77
2023/05/17 07:08:45;;;;;;;0.70;0.70;;;;;;;12.09;82.34;96895.91;108884;1250;96003;-77
2023/05/17 07:11:14;;;;;;;0.80;0.80;;;;;;;12.09;82.41;96897.80;108889;1250;103510;-76
2023/05/17 07:13:42;;;;;;;1.80;1.10;;;;;;;12.09;82.33;96901.86;108789;1251;101460;-76
2023/05/17 07:16:10;;;;;;;0.90;0.90;;;;;;;12.11;82.43;96905.38;108880;1251;99546;-77
2023/05/17 07:18:38;;;;;;;1.40;1.00;;;;;;;12.12;82.52;96905.57;108615;1250;95620;-77
2023/05/17 07:21:07;;;;;;;1.50;0.90;;;;;;;12.13;82.56;96908.59;108872;1251;96017;-76
2023/05/17 07:23:35;;;;;;;1.00;0.80;;;;;;;12.14;82.49;96907.08;108617;1250;103500;-76
2023/05/17 07:26:03;;;;;;;0.90;0.90;;;;;;;12.13;82.51;96905.59;108906;1251;101310;-78
2023/05/17 07:28:31;;;;;;;0.80;0.80;;;;;;;12.12;82.58;96903.36;108890;1250;99891;-75
2023/05/17 07:31:00;;;;;;;0.80;0.80;;;;;;;12.13;82.64;96904.47;108891;1251;95600;-76
2023/05/17 07:33:28;;;;;;;1.10;1.00;;;;;;;12.16;82.64;96905.67;108899;1251;97046;-76
2023/05/17 07:35:56;;;;;;;1.50;1.40;;;;;;;12.19;82.81;96910.48;108732;1251;103666;-76
2023/05/17 07:38:24;;;;;;;2.90;1.30;;;;;;;12.21;82.69;96914.99;108916;1251;100068;-76
2023/05/17 07:40:53;;;;;;;1.10;1.00;;;;;;;12.21;82.63;96920.40;108822;1251;99986;-76
2023/05/17 07:43:21;;;;;;;1.30;0.70;;;;;;;12.22;82.48;96924.76;108838;1250;95651;-76
2023/05/17 07:45:49;;;;;;;0.80;0.80;;;;;;;12.21;82.51;96924.09;108829;1250;96427;-77
2023/05/17 07:48:17;;;;;;;1.30;1.20;;;;;;;12.21;82.58;96929.64;108857;1251;103519;-76
2023/05/17 07:50:45;;;;;;;1.40;1.30;;;;;;;12.21;82.62;96927.64;108833;1251;101359;-76
2023/05/17 07:53:13;;;;;;;1.40;1.30;;;;;;;12.20;82.58;96928.17;108891;1251;99595;-78
2023/05/17 07:55:41;;;;;;;4.30;1.60;;;;;;;12.19;82.74;96928.92;108888;1250;95812;-78
2023/05/17 07:58:11;;;;;;;3.60;1.80;;;;;;;12.17;82.92;96931.96;108926;1251;96029;-78
2023/05/17 08:00:39;;;;;;;2.50;1.50;;;;;;;12.12;82.94;96930.91;108408;1257;103245;-76
2023/05/17 08:03:08;;;;;;;2.30;1.50;;;;;;;12.14;83.03;96932.48;108862;1251;101231;-74
2023/05/17 08:05:36;;;;;;;1.60;1.50;;;;;;;12.16;83.02;96933.77;108645;1251;100161;-75
2023/05/17 08:08:04;;;;;;;1.30;1.20;;;;;;;12.19;83.13;96934.02;108927;1251;97006;-76
2023/05/17 08:10:35;;;;;;;2.00;1.20;;;;;;;12.21;83.30;96939.08;108897;1250;96096;-75
2023/05/17 08:13:04;;;;;;;1.50;1.00;;;;;;;12.22;83.22;96940.35;108854;1250;103527;-75
2023/05/17 08:15:33;;;;;;;1.20;1.10;;;;;;;12.23;83.28;96940.31;108885;1251;101324;-76
2023/05/17 08:18:01;;;;;;;1.60;0.90;;;;;;;12.24;83.24;96940.95;108619;1251;98939;-76
2023/05/17 08:20:29;;;;;;;1.10;1.00;;;;;;;12.23;83.30;96940.59;108886;1251;95595;-75
2023/05/17 08:22:57;;;;;;;1.40;0.90;;;;;;;12.27;83.59;96944.96;108842;1250;96043;-76
2023/05/17 08:25:26;;;;;;;1.30;1.10;;;;;;;12.33;83.40;96951.05;108869;1251;103506;-76
2023/05/17 08:27:54;;;;;;;0.70;0.70;;;;;;;12.36;83.41;96954.33;108941;1251;101325;-77
2023/05/17 08:30:22;;;;;;;0.70;0.70;;;;;;;12.35;83.30;96955.23;108861;1251;99877;-78
2023/05/17 08:32:51;;;;;;;0.90;0.80;;;;;;;12.36;83.16;96958.13;108600;1251;96038;-76
2023/05/17 08:35:19;;;;;;;0.70;0.70;;;;;;;12.40;83.32;96963.36;108655;1250;96472;-77
2023/05/17 08:37:50;;;;;;;0.80;0.50;;;;;;;12.43;83.21;96964.52;108916;1251;103872;-77
2023/05/17 08:40:21;;;;;;;0.90;0.80;;;;;;;12.45;83.23;96966.84;108900;1250;101264;-75
2023/05/17 08:42:53;;;;;;;1.50;0.70;;;;;;;12.46;83.21;96968.70;108861;1251;99429;-75
2023/05/17 08:45:21;;;;;;;0.70;0.70;;;;;;;12.48;83.13;96970.91;108802;1250;95599;-76
2023/05/17 08:47:53;;;;;;;3.20;0.90;;;;;;;12.50;83.14;96973.30;108828;1251;96024;-75
2023/05/17 08:50:21;;;;;;;2.20;0.90;;;;;;;12.52;83.18;96979.48;108907;1251;103171;-75
2023/05/17 08:52:50;;;;;;;0.90;0.70;;;;;;;12.53;83.20;96982.17;108874;1251;101283;-76
2023/05/17 08:55:19;;;;;;;1.50;0.80;;;;;;;12.54;83.10;96984.08;108777;1251;99915;-76
2023/05/17 08:57:47;;;;;;;0.80;0.80;;;;;;;12.54;83.24;96983.95;108851;1250;95635;-75
2023/05/17 09:00:19;;;;;;;1.40;1.10;;;;;;;12.55;83.15;96986.38;108865;1251;96315;-76
2023/05/17 09:02:48;;;;;;;3.30;1.10;;;;;;;12.57;82.94;96991.13;108607;1251;233707;-76
2023/05/17 09:05:16;;;;;;;1.10;1.00;;;;;;;12.58;82.93;96987.02;108858;1250;101281;-75
2023/05/17 09:07:45;;;;;;;1.00;0.80;;;;;;;12.58;83.01;96985.40;108682;1250;99956;-76
2023/05/17 09:10:13;;;;;;;1.80;1.00;;;;;;;12.58;83.03;96989.08;108551;1251;95663;-77
2023/05/17 09:12:41;;;;;;;2.80;1.30;;;;;;;12.58;82.94;96987.23;108774;1251;96079;-75
2023/05/17 09:15:18;;;;;;;3.10;1.50;;;;;;;12.57;82.97;96990.25;108854;1250;103511;-77
2023/05/17 09:17:56;;;;;;;2.60;1.20;;;;;;;12.55;83.03;96992.89;108862;1250;101067;-76
2023/05/17 09:20:32;;;;;;;1.40;1.00;;;;;;;12.53;82.83;96995.46;108817;1251;99637;-76
2023/05/17 09:23:01;;;;;;;1.40;1.00;;;;;;;12.51;82.92;96995.33;108906;1251;95943;-76
2023/05/17 09:25:31;;;;;;;1.60;1.00;;;;;;;12.52;82.97;96997.52;108955;1249;96001;-75
2023/05/17 09:28:06;;;;;;;1.20;0.90;;;;;;;12.52;82.90;97001.14;108972;1249;103641;-76
2023/05/17 09:30:36;;;;;;;2.10;1.10;;;;;;;12.52;83.04;97004.02;108928;1249;101270;-75
2023/05/17 09:33:09;;;;;;;1.50;1.10;;;;;;;12.50;83.13;97010.61;108931;1251;99623;-76
2023/05/17 09:35:38;;;;;;;3.10;1.30;;;;;;;12.50;83.11;97012.41;108892;1250;95596;-76
2023/05/17 09:38:11;;;;;;;3.20;1.30;;;;;;;12.52;83.23;97015.64;108924;1250;96043;-76
2023/05/17 09:40:41;;;;;;;1.60;1.20;;;;;;;12.55;83.49;97015.98;108967;1251;102169;-75
2023/05/17 09:43:11;;;;;;;1.90;1.30;;;;;;;12.59;83.49;97020.09;108952;1251;101299;-75
2023/05/17 09:45:40;;;;;;;2.70;1.50;;;;;;;12.65;83.61;97024.09;108929;1251;99805;-76
2023/05/17 09:48:21;;;;;;;2.30;1.20;;;;;;;12.69;83.61;97028.97;108898;1249;95591;-76
2023/05/17 09:50:51;;;;;;;1.30;1.10;;;;;;;12.69;83.52;97036.13;108900;1250;95990;-75
2023/05/17 09:53:27;;;;;;;1.40;0.90;;;;;;;12.71;83.42;97037.80;108742;1250;103291;-77
2023/05/17 09:55:57;;;;;;;1.00;0.90;;;;;;;12.71;83.29;97037.42;108934;1250;101208;-75
2023/05/17 09:58:28;;;;;;;1.10;0.80;;;;;;;12.72;83.19;97037.84;108885;1251;99900;-76
2023/05/17 10:01:02;;;;;;;2.00;0.90;;;;;;;12.74;83.17;97035.94;108895;1250;95762;-77
2023/05/17 10:03:35;;;;;;;1.50;1.10;;;;;;;12.74;83.08;97035.56;108931;1249;96061;-75
2023/05/17 10:06:08;;;;;;;3.80;1.60;;;;;;;12.74;83.14;97031.92;108784;1252;104892;-76
2023/05/17 10:08:38;;;;;;;3.20;1.90;;;;;;;12.75;83.07;97031.45;108870;1250;101437;-75
2023/05/17 10:11:11;;;;;;;4.80;2.10;;;;;;;12.72;83.04;97030.34;108809;1250;99426;-75
2023/05/17 10:13:54;;;;;;;2.00;1.50;;;;;;;12.68;83.28;97024.05;108849;1250;95616;-76
2023/05/17 10:16:23;;;;;;;3.00;1.80;;;;;;;12.72;83.43;97030.05;108427;1250;95995;-75
2023/05/17 10:18:53;;;;;;;2.20;1.80;;;;;;;12.79;83.42;97036.06;108896;1250;103842;-76
2023/05/17 10:21:22;;;;;;;2.50;1.40;;;;;;;12.84;83.34;97039.80;108904;1250;102169;-77
2023/05/17 10:23:52;;;;;;;1.10;1.00;;;;;;;12.85;83.12;97037.07;108618;1250;100120;-76
2023/05/17 10:26:21;;;;;;;1.40;0.90;;;;;;;12.86;83.01;97042.35;108618;1250;95632;-78
2023/05/17 10:28:53;;;;;;;1.00;0.90;;;;;;;12.83;82.78;97040.06;108876;1250;96331;-77
2023/05/17 10:31:21;;;;;;;1.60;1.00;;;;;;;12.81;82.70;97041.95;108898;1250;103601;-77
2023/05/17 10:33:50;;;;;;;1.90;1.30;;;;;;;12.76;82.43;97044.70;108836;1250;101605;-76
2023/05/17 10:36:19;;;;;;;1.60;1.30;;;;;;;12.62;82.19;97051.91;108854;1250;100083;-75
2023/05/17 10:38:47;;;;;;;2.40;1.50;;;;;;;12.49;82.42;97056.02;108891;1250;95560;-76
2023/05/17 10:41:18;;;;;;;1.50;1.10;;;;;;;12.41;82.26;97059.54;108859;1250;95992;-75
2023/05/17 10:43:47;;;;;;;2.30;1.60;;;;;;;12.33;82.24;97058.94;108845;1251;103552;-76
2023/05/17 10:46:20;;;;;;;1.90;1.20;;;;;;;12.29;82.33;97059.67;108804;1250;101371;-75
2023/05/17 10:48:52;;;;;;;2.30;1.30;;;;;;;12.30;82.37;97059.63;108790;1250;99485;-74
2023/05/17 10:51:24;;;;;;;2.00;1.20;;;;;;;12.30;82.33;97063.16;108897;1250;95665;-77
2023/05/17 10:54:17;;;;;;;5.10;1.10;;;;;;;12.34;82.38;97068.00;108916;1250;95986;-77
2023/05/17 10:56:53;;;;;;;3.30;0.90;;;;;;;12.26;82.17;97072.24;108831;1250;103550;-75
2023/05/17 10:59:28;;;;;;;0.70;0.70;;;;;;;12.06;82.15;97071.27;108850;1250;101328;-75
2023/05/17 11:02:02;;;;;;;0.50;0.50;;;;;;;11.99;82.32;97071.74;108827;1250;99934;-76
2023/05/17 11:04:36;;;;;;;0.50;0.50;;;;;;;11.95;82.21;97073.97;108854;1250;95641;-77
2023/05/17 11:07:17;;;;;;;1.10;0.80;;;;;;;11.87;82.35;97080.30;108794;1250;96438;-76
2023/05/17 11:09:52;;;;;;;1.90;1.40;;;;;;;11.79;82.27;97086.68;108898;1250;103925;-76
2023/05/17 11:12:37;;;;;;;3.20;1.90;;;;;;;11.76;82.18;97092.95;108876;1250;100014;-76
2023/05/17 11:15:10;;;;;;;3.00;1.90;;;;;;;11.72;82.19;97095.95;108559;1250;99611;-75
2023/05/17 11:17:45;;;;;;;1.90;1.80;;;;;;;11.73;82.17;97103.39;108583;1250;96026;-77
2023/05/17 11:20:16;;;;;;;2.30;1.90;;;;;;;11.71;82.10;97100.73;108837;1251;96434;-75
2023/05/17 11:22:58;;;;;;;2.00;1.80;;;;;;;11.68;82.10;97105.05;108802;1250;103399;-75
2023/05/17 11:25:34;;;;;;;;;;;;;;;11.69;82.00;97107.25;108557;1250;101389;-76
2023/05/17 11:28:20;;;;;;;2.00;1.90;;;;;;;11.60;81.68;97109.13;108857;1250;99936;-75
2023/05/17 11:30:52;;;;;;;2.20;2.00;;;;;;;11.55;81.95;97110.92;108688;1250;96313;-74